Santo Antonio, Brazil
Current Conditions -  °F | °C
As of 11:00 AM on Friday 31 Oct 2014 (Local Time) from SBNT Reporting Station
Scattered Clouds Scattered Clouds  
Wind Chill: 86°   Ceiling: Unl
Heat Index: 88°   Visibility: 6mi
Dew Point: 66°   Wind: 17mph
Humidity: 51%   Direction: 130°SE
Pressure: 29.94"   Gusts: NA
Location:  6.31°S, 35.48°W
Report Text: SBNT 311400Z 13015KT 9999 SCT027 30/19 Q1014
Loading
Personal Weather Stations






























Interactive Weather Map
Tropical Storm Tracking
New forecast layout! Learn more

10-Day Weather Forecast

Advertisements
Track Severe Weather on mobile